Time;durP1;ratioP1;P1;durP2;ratioP2;P2;SDS_P1;SDS_P2;PMS_P1;PMS_P2;Temp;Humidity;BMP_temperature;BMP_pressure;BME280_temperature;BME280_humidity;BME280_pressure;Samples;Min_cycle;Max_cycle;Signal;HPM_P1;HPM_P2
2022/10/08 00:01:17;;;;;;;14.07;7.57;;;;;;;13.18;100.00;98981.88;5009777;28;20018;-75
2022/10/08 00:03:45;;;;;;;10.90;7.67;;;;;;;13.12;100.00;98978.97;5002321;28;20034;-75
2022/10/08 00:06:28;;;;;;;14.50;7.80;;;;;;;13.19;100.00;98994.44;5010468;28;20033;-75
2022/10/08 00:08:57;;;;;;;13.02;8.40;;;;;;;13.08;100.00;98974.22;5003273;28;20655;-75
2022/10/08 00:11:25;;;;;;;15.52;8.13;;;;;;;13.15;100.00;98988.56;5004609;28;20026;-75
2022/10/08 00:13:52;;;;;;;13.50;8.38;;;;;;;13.06;100.00;98976.31;5008090;28;20057;-76
2022/10/08 00:16:26;;;;;;;12.45;7.55;;;;;;;13.14;100.00;98986.91;5007636;28;20022;-75
2022/10/08 00:18:54;;;;;;;13.18;7.93;;;;;;;13.11;100.00;98992.78;5001122;28;20523;-75
2022/10/08 00:21:23;;;;;;;13.15;8.80;;;;;;;13.14;100.00;99000.50;5007378;28;20414;-75
2022/10/08 00:23:50;;;;;;;10.63;7.80;;;;;;;13.14;100.00;99001.31;5004614;28;20049;-75
2022/10/08 00:26:17;;;;;;;12.00;8.50;;;;;;;13.22;100.00;99000.25;5008061;28;20034;-75
2022/10/08 00:28:44;;;;;;;12.85;8.27;;;;;;;13.23;100.00;99001.94;5011026;28;20101;-75
2022/10/08 00:31:13;;;;;;;11.90;7.95;;;;;;;13.21;100.00;99004.03;5007159;28;20022;-75
2022/10/08 00:33:38;;;;;;;15.68;7.88;;;;;;;13.16;100.00;98993.81;5002620;28;20468;-75
2022/10/08 00:36:06;;;;;;;21.02;7.95;;;;;;;13.10;100.00;98986.53;5009639;28;20049;-75
2022/10/08 00:38:32;;;;;;;13.55;8.10;;;;;;;13.09;100.00;98998.41;5009320;28;20018;-75
2022/10/08 00:40:59;;;;;;;11.25;7.47;;;;;;;13.19;100.00;99000.69;5005363;28;20099;-75
2022/10/08 00:43:43;;;;;;;11.13;8.00;;;;;;;12.80;100.00;98959.03;5005008;28;20029;-75
2022/10/08 00:46:22;;;;;;;21.45;8.27;;;;;;;12.72;100.00;98978.28;5006721;28;20093;-75
2022/10/08 00:48:49;;;;;;;;;;;;;;;12.70;100.00;98996.66;5007510;28;20029;-75
2022/10/08 00:51:14;;;;;;;13.15;7.80;;;;;;;12.58;100.00;98995.66;5011916;28;19913;-75
2022/10/08 00:53:39;;;;;;;14.50;8.63;;;;;;;12.38;100.00;98988.38;5009100;28;20041;-75
2022/10/08 00:56:05;;;;;;;15.15;8.18;;;;;;;12.26;100.00;98990.91;5009850;28;20036;-76
2022/10/08 00:58:32;;;;;;;15.40;8.15;;;;;;;12.35;100.00;98996.94;5011509;28;20392;-76
2022/10/08 01:00:58;;;;;;;13.38;7.97;;;;;;;12.23;100.00;98990.47;5012284;28;20034;-76
2022/10/08 01:03:23;;;;;;;19.63;9.60;;;;;;;12.20;100.00;98975.44;5007192;28;20438;-75
2022/10/08 01:06:07;;;;;;;13.73;7.88;;;;;;;12.48;100.00;98993.38;5002369;28;20599;-75
2022/10/08 01:08:53;;;;;;;15.10;8.23;;;;;;;12.40;100.00;98994.44;5007595;28;20558;-76
2022/10/08 01:11:49;;;;;;;16.80;8.95;;;;;;;12.57;100.00;98989.38;5009351;28;20112;-75
2022/10/08 01:14:38;;;;;;;14.70;8.80;;;;;;;12.62;100.00;98983.31;5017761;28;20068;-75
2022/10/08 01:17:25;;;;;;;14.00;8.40;;;;;;;12.68;100.00;98982.47;5006291;28;20021;-75
2022/10/08 01:20:09;;;;;;;14.18;8.52;;;;;;;12.73;100.00;98963.66;5006118;28;20306;-75
2022/10/08 01:22:53;;;;;;;13.05;8.20;;;;;;;12.65;100.00;98977.47;5007661;28;20038;-75
2022/10/08 01:25:36;;;;;;;12.07;8.30;;;;;;;12.56;100.00;98963.28;5008824;28;20025;-74
2022/10/08 01:28:18;;;;;;;17.92;8.13;;;;;;;12.61;100.00;98982.50;5014386;28;20026;-75
2022/10/08 01:31:06;;;;;;;11.63;7.68;;;;;;;12.58;100.00;98976.66;5009773;28;20089;-75
2022/10/08 01:33:47;;;;;;;13.52;8.18;;;;;;;12.62;100.00;98975.19;4996092;28;20034;-75
2022/10/08 01:36:17;;;;;;;14.18;7.72;;;;;;;12.61;100.00;98981.66;5023670;28;20030;-75
2022/10/08 01:38:49;;;;;;;20.00;7.97;;;;;;;12.56;100.00;98970.59;5020625;28;20018;-75
2022/10/08 01:41:16;;;;;;;15.57;8.20;;;;;;;12.47;100.00;98954.56;5022877;28;20050;-78
2022/10/08 01:43:48;;;;;;;14.35;8.35;;;;;;;12.57;100.00;98973.09;5020943;28;20089;-75
2022/10/08 01:46:19;;;;;;;14.68;8.90;;;;;;;12.35;100.00;98949.97;5018178;28;20018;-76
2022/10/08 01:48:47;;;;;;;15.10;9.10;;;;;;;12.27;100.00;98930.16;5024425;28;20502;-75
2022/10/08 01:51:22;;;;;;;15.93;9.60;;;;;;;12.52;100.00;98970.19;5025262;28;20502;-75
2022/10/08 01:53:50;;;;;;;14.30;8.30;;;;;;;12.25;100.00;98924.09;5018304;28;20061;-76
2022/10/08 01:56:22;;;;;;;18.60;9.07;;;;;;;12.51;100.00;98963.09;5014238;28;20164;-75
2022/10/08 01:59:08;;;;;;;16.45;8.63;;;;;;;12.54;100.00;98969.97;5006458;28;20097;-76
2022/10/08 02:01:43;;;;;;;17.88;8.45;;;;;;;12.52;100.00;98953.06;5012400;28;20034;-75
2022/10/08 02:06:58;;;;;;;13.82;8.55;;;;;;;12.71;100.00;98966.59;5009393;28;20113;-75
2022/10/08 02:09:27;;;;;;;15.25;8.07;;;;;;;12.62;100.00;98967.03;5019922;28;20076;-75
2022/10/08 02:11:53;;;;;;;12.00;7.20;;;;;;;12.53;100.00;98963.72;5010528;28;20184;-75
2022/10/08 02:14:24;;;;;;;11.27;7.68;;;;;;;12.39;100.00;98946.66;5015203;28;20045;-75
2022/10/08 02:17:00;;;;;;;13.10;7.82;;;;;;;12.57;100.00;98969.56;5008163;28;20022;-76
2022/10/08 02:19:43;;;;;;;11.48;7.75;;;;;;;12.37;100.00;98951.44;5011272;28;20117;-75
2022/10/08 02:22:13;;;;;;;12.85;7.15;;;;;;;12.40;100.00;98953.72;5011793;28;20407;-75
2022/10/08 02:24:51;;;;;;;16.45;7.93;;;;;;;12.30;100.00;98949.78;5011394;28;20033;-75
2022/10/08 02:27:24;;;;;;;13.90;8.35;;;;;;;12.35;100.00;98958.94;5008605;28;20503;-75
2022/10/08 02:30:06;;;;;;;12.20;7.63;;;;;;;12.28;100.00;98950.81;5012668;28;20114;-75
2022/10/08 02:32:49;;;;;;;15.20;7.93;;;;;;;12.15;100.00;98939.97;5022520;28;20077;-75
2022/10/08 02:35:26;;;;;;;15.85;7.93;;;;;;;12.34;100.00;98964.56;5009062;28;20030;-74
2022/10/08 02:37:58;;;;;;;11.50;7.65;;;;;;;12.20;100.00;98940.19;5001072;28;20042;-75
2022/10/08 02:40:26;;;;;;;12.90;7.95;;;;;;;12.36;100.00;98938.91;5011663;28;20109;-75
2022/10/08 02:42:56;;;;;;;12.38;8.02;;;;;;;12.61;100.00;98965.38;5006305;28;20033;-75
2022/10/08 02:45:32;;;;;;;14.88;8.40;;;;;;;12.69;100.00;98962.44;5011057;28;20148;-75
2022/10/08 02:48:10;;;;;;;11.30;7.65;;;;;;;12.60;100.00;98944.69;5013857;28;20032;-75
2022/10/08 02:50:40;;;;;;;11.90;7.05;;;;;;;12.76;100.00;98951.53;5010346;28;20105;-74
2022/10/08 02:53:05;;;;;;;13.45;7.50;;;;;;;12.72;100.00;98946.53;5008840;28;20029;-74
2022/10/08 02:55:47;;;;;;;11.85;7.70;;;;;;;12.77;100.00;98955.94;5010088;28;20464;-75
2022/10/08 02:58:12;;;;;;;11.25;7.35;;;;;;;12.67;100.00;98937.38;5007592;28;20076;-75
2022/10/08 03:00:47;;;;;;;15.88;8.02;;;;;;;12.78;100.00;98958.41;5011146;28;20034;-75
2022/10/08 03:03:15;;;;;;;15.52;8.45;;;;;;;12.75;100.00;98967.00;5008268;28;20460;-75
2022/10/08 03:05:41;;;;;;;18.13;8.43;;;;;;;12.60;100.00;98944.69;5014137;28;20519;-75
2022/10/08 03:08:09;;;;;;;13.27;7.97;;;;;;;12.76;100.00;98979.53;5009805;28;20030;-75
2022/10/08 03:10:38;;;;;;;13.05;8.32;;;;;;;12.75;100.00;98983.28;5010719;28;20104;-75
2022/10/08 03:13:05;;;;;;;11.27;8.20;;;;;;;12.64;100.00;98960.34;5013404;28;20471;-75
2022/10/08 03:15:32;;;;;;;13.70;8.50;;;;;;;12.67;100.00;98970.78;5009596;28;20069;-75
2022/10/08 03:18:01;;;;;;;12.15;8.20;;;;;;;12.60;100.00;98959.13;5010685;28;20018;-75
2022/10/08 03:20:29;;;;;;;15.38;8.63;;;;;;;12.79;100.00;98989.97;5010774;28;20026;-75
2022/10/08 03:22:59;;;;;;;20.48;8.93;;;;;;;12.62;100.00;98967.84;5008741;28;20022;-75
2022/10/08 03:25:24;;;;;;;;;;;;;;;13.03;100.00;98995.75;5008250;28;20076;-74
2022/10/08 03:27:50;;;;;;;15.40;8.63;;;;;;;12.86;100.00;98987.22;5009605;28;19917;-75
2022/10/08 03:30:15;;;;;;;15.15;8.45;;;;;;;12.83;100.00;98963.22;5013439;28;20080;-74
2022/10/08 03:32:41;;;;;;;13.35;7.72;;;;;;;12.85;100.00;98975.53;5007815;28;20059;-75
2022/10/08 03:35:06;;;;;;;13.50;7.75;;;;;;;12.87;100.00;98987.03;5004396;28;20032;-75
2022/10/08 03:37:31;;;;;;;9.60;6.93;;;;;;;12.83;100.00;98980.34;5013322;28;20024;-75
2022/10/08 03:39:57;;;;;;;12.70;6.95;;;;;;;12.97;100.00;99005.59;5008417;28;20037;-75
2022/10/08 03:42:22;;;;;;;9.20;6.95;;;;;;;12.91;100.00;98981.97;5011674;28;20100;-75
2022/10/08 03:44:47;;;;;;;14.20;7.85;;;;;;;12.72;100.00;98962.00;5004352;28;20033;-75
2022/10/08 03:47:13;;;;;;;19.45;8.40;;;;;;;12.81;100.00;98976.16;5008388;28;20495;-75
2022/10/08 03:49:38;;;;;;;18.10;7.50;;;;;;;13.04;100.00;98995.50;5008624;28;20091;-76
2022/10/08 03:52:04;;;;;;;12.70;8.02;;;;;;;13.04;100.00;98972.97;5012023;28;20490;-75
2022/10/08 03:54:29;;;;;;;17.65;9.27;;;;;;;13.09;100.00;98979.41;5006855;28;20112;-75
2022/10/08 03:56:54;;;;;;;15.88;8.45;;;;;;;13.04;100.00;98991.97;5005920;28;20022;-75
2022/10/08 03:59:20;;;;;;;16.67;8.65;;;;;;;13.05;100.00;98994.47;5013982;28;20125;-75
2022/10/08 04:01:45;;;;;;;14.93;9.20;;;;;;;13.12;100.00;99016.16;5009823;28;20509;-75
2022/10/08 04:04:10;;;;;;;10.57;7.70;;;;;;;13.01;100.00;99005.97;5011785;28;20038;-75
2022/10/08 04:06:36;;;;;;;14.02;8.18;;;;;;;12.90;100.00;99004.75;5011038;28;20034;-75
2022/10/08 04:09:01;;;;;;;12.45;7.78;;;;;;;12.88;100.00;99012.28;5008524;28;20030;-75
2022/10/08 04:11:27;;;;;;;15.25;7.95;;;;;;;12.94;100.00;99019.56;5011589;28;20431;-75
2022/10/08 04:13:53;;;;;;;11.07;8.05;;;;;;;12.77;100.00;99004.81;5006781;28;20036;-76
2022/10/08 04:16:18;;;;;;;16.80;8.73;;;;;;;12.86;100.00;99017.94;5011056;28;20255;-75
2022/10/08 04:18:45;;;;;;;16.30;8.30;;;;;;;12.89;100.00;99022.94;5010518;28;20080;-75
2022/10/08 04:21:13;;;;;;;12.90;8.27;;;;;;;12.85;100.00;99015.44;5010931;28;20022;-75
2022/10/08 04:23:39;;;;;;;13.98;8.45;;;;;;;12.81;100.00;99009.59;5007285;28;20032;-75
2022/10/08 04:26:07;;;;;;;12.07;8.40;;;;;;;12.85;100.00;99032.56;5006214;28;20053;-75
2022/10/08 04:28:34;;;;;;;17.13;9.25;;;;;;;12.83;100.00;99021.06;5010599;28;20439;-77
2022/10/08 04:31:05;;;;;;;15.30;9.32;;;;;;;12.76;100.00;99032.97;5010316;28;20037;-76
2022/10/08 04:33:32;;;;;;;16.52;9.57;;;;;;;12.67;100.00;99019.63;5013328;28;20101;-75
2022/10/08 04:35:57;;;;;;;15.95;9.77;;;;;;;12.61;100.00;99008.81;5008184;28;20112;-76
2022/10/08 04:38:23;;;;;;;18.63;10.48;;;;;;;12.59;100.00;99021.75;5005395;28;20105;-75
2022/10/08 04:41:00;;;;;;;18.50;9.80;;;;;;;12.57;100.00;99018.41;5008980;28;20026;-75
2022/10/08 04:43:25;;;;;;;18.65;10.05;;;;;;;12.58;100.00;99011.94;5006344;28;21495;-76
2022/10/08 04:45:51;;;;;;;16.35;10.13;;;;;;;12.72;100.00;99038.84;5013632;28;20443;-74
2022/10/08 04:48:16;;;;;;;18.65;9.98;;;;;;;12.77;100.00;99042.81;5001442;28;20036;-71
2022/10/08 04:50:41;;;;;;;22.70;10.48;;;;;;;12.67;100.00;99035.91;5009037;28;20467;-74
2022/10/08 04:53:07;;;;;;;18.95;9.98;;;;;;;12.71;100.00;99039.91;5001676;28;20029;-76
2022/10/08 04:55:32;;;;;;;17.92;9.63;;;;;;;12.73;100.00;99039.66;5008727;28;20133;-76
2022/10/08 04:57:58;;;;;;;18.05;9.70;;;;;;;12.73;100.00;99039.66;5011110;28;20361;-76
2022/10/08 05:00:24;;;;;;;14.77;10.23;;;;;;;12.75;100.00;99047.63;5006180;28;20040;-75
2022/10/08 05:02:50;;;;;;;14.55;10.60;;;;;;;12.68;100.00;99039.47;5003451;28;20030;-75
2022/10/08 05:05:15;;;;;;;15.82;9.60;;;;;;;12.64;100.00;99058.06;5007661;28;20021;-77
2022/10/08 05:07:41;;;;;;;16.92;9.85;;;;;;;12.52;100.00;99043.44;5005914;28;20034;-77
2022/10/08 05:10:06;;;;;;;14.75;9.48;;;;;;;12.59;100.00;99057.03;5004590;28;20026;-77
2022/10/08 05:12:32;;;;;;;20.02;9.60;;;;;;;12.60;100.00;99055.97;5010770;28;20030;-79
2022/10/08 05:14:57;;;;;;;18.23;9.98;;;;;;;12.41;100.00;99050.34;5013236;28;20360;-78
2022/10/08 05:17:22;;;;;;;21.80;11.60;;;;;;;12.50;100.00;99065.41;5017822;28;20027;-81
2022/10/08 05:19:48;;;;;;;19.05;11.80;;;;;;;12.57;100.00;99059.13;5014269;28;20507;-77
2022/10/08 05:22:13;;;;;;;16.23;11.35;;;;;;;12.35;100.00;99043.06;5011218;28;20068;-77
2022/10/08 05:24:38;;;;;;;18.35;11.13;;;;;;;12.51;100.00;99066.22;5004307;28;20080;-72
2022/10/08 05:27:04;;;;;;;15.13;10.13;;;;;;;12.32;100.00;99062.47;5015221;28;20057;-77
2022/10/08 05:29:29;;;;;;;22.77;12.40;;;;;;;12.28;100.00;99055.78;5009985;28;20038;-78
2022/10/08 05:31:54;;;;;;;15.52;10.63;;;;;;;12.39;100.00;99066.03;5010816;28;20041;-79
2022/10/08 05:34:20;;;;;;;21.02;11.27;;;;;;;12.44;100.00;99077.09;5066016;22;20072;-77
2022/10/08 05:36:45;;;;;;;21.27;10.98;;;;;;;12.40;100.00;99077.72;5076510;28;20028;-72
2022/10/08 05:39:11;;;;;;;16.40;10.27;;;;;;;12.36;100.00;99101.69;5080171;28;20016;-72
2022/10/08 05:41:36;;;;;;;19.88;10.82;;;;;;;12.48;100.00;99086.47;5055189;28;20112;-72
2022/10/08 05:44:03;;;;;;;16.60;10.48;;;;;;;12.42;100.00;99081.06;5046672;28;20032;-72
2022/10/08 05:46:30;;;;;;;16.67;11.50;;;;;;;12.50;100.00;99088.97;5048609;28;20114;-72
2022/10/08 05:48:58;;;;;;;19.98;11.55;;;;;;;12.46;100.00;99088.56;5063479;28;20020;-72
2022/10/08 05:51:23;;;;;;;16.92;10.05;;;;;;;12.49;100.00;99096.25;5045160;28;20033;-71
2022/10/08 05:53:51;;;;;;;19.70;11.05;;;;;;;12.60;100.00;99092.13;5045176;28;20021;-71
2022/10/08 05:56:19;;;;;;;16.67;10.85;;;;;;;12.56;100.00;99079.16;5048650;28;20021;-68
2022/10/08 05:58:46;;;;;;;14.85;10.48;;;;;;;12.68;100.00;99085.63;5045702;28;20067;-74
2022/10/08 06:01:13;;;;;;;15.82;9.98;;;;;;;12.67;100.00;99094.81;5046837;28;20034;-73
2022/10/08 06:03:38;;;;;;;17.52;10.68;;;;;;;12.60;100.00;99093.97;5046075;28;20025;-72
2022/10/08 06:06:09;;;;;;;18.83;10.73;;;;;;;12.74;100.00;99101.09;5062797;28;20039;-71
2022/10/08 06:08:35;;;;;;;19.30;11.38;;;;;;;12.81;100.00;99101.06;5050358;28;20040;-70
2022/10/08 06:11:02;;;;;;;16.50;10.50;;;;;;;12.88;100.00;99102.72;5059059;28;20024;-71
2022/10/08 06:13:27;;;;;;;20.88;11.98;;;;;;;12.93;100.00;99094.78;5042896;28;20017;-72
2022/10/08 06:15:55;;;;;;;21.67;11.70;;;;;;;13.14;100.00;99104.56;5051066;28;20112;-71
2022/10/08 06:18:20;;;;;;;24.42;10.98;;;;;;;13.25;100.00;99096.81;5062378;28;20021;-71
2022/10/08 06:20:45;;;;;;;18.95;11.25;;;;;;;13.53;100.00;99096.53;5050564;28;20508;-72
2022/10/08 06:23:10;;;;;;;19.38;10.35;;;;;;;13.73;100.00;99108.16;5040371;28;20032;-71
2022/10/08 06:25:36;;;;;;;17.08;10.20;;;;;;;13.81;100.00;99099.75;5045444;28;20025;-71
2022/10/08 06:28:01;;;;;;;18.38;10.30;;;;;;;13.93;100.00;99099.06;5047351;28;20048;-71
2022/10/08 06:30:27;;;;;;;16.67;10.20;;;;;;;13.86;100.00;99100.97;5037925;28;20021;-72
2022/10/08 06:32:52;;;;;;;16.33;10.15;;;;;;;13.84;100.00;99113.97;5048810;28;20474;-71
2022/10/08 06:35:17;;;;;;;18.40;9.65;;;;;;;13.97;100.00;99112.00;5041965;28;20028;-71
2022/10/08 06:37:46;;;;;;;18.17;9.52;;;;;;;14.22;100.00;99111.22;5039584;28;20037;-71
2022/10/08 06:40:12;;;;;;;16.70;9.27;;;;;;;14.54;100.00;99114.81;5043119;28;20040;-71
2022/10/08 06:42:37;;;;;;;16.10;8.88;;;;;;;14.75;100.00;99118.19;5042815;28;20029;-71
2022/10/08 06:45:02;;;;;;;16.98;9.25;;;;;;;14.68;100.00;99123.72;5040752;28;20108;-70
2022/10/08 06:47:28;;;;;;;13.70;8.93;;;;;;;14.70;100.00;99124.31;5047343;28;20028;-74
2022/10/08 06:49:53;;;;;;;19.30;9.77;;;;;;;14.57;100.00;99113.53;5055393;28;20025;-77
2022/10/08 06:52:18;;;;;;;16.08;9.20;;;;;;;14.66;100.00;99121.19;5063761;28;20037;-76
2022/10/08 06:54:43;;;;;;;13.13;8.07;;;;;;;14.56;100.00;99120.84;5064503;28;20032;-73
2022/10/08 06:57:09;;;;;;;16.00;8.93;;;;;;;14.44;100.00;99126.16;5067533;28;20346;-75
2022/10/08 06:59:34;;;;;;;15.90;7.80;;;;;;;14.42;100.00;99120.09;5065729;28;20037;-75
2022/10/08 07:01:59;;;;;;;14.50;8.40;;;;;;;14.53;100.00;99140.34;5062761;28;20017;-75
2022/10/08 07:04:25;;;;;;;16.35;8.95;;;;;;;14.64;100.00;99138.81;5051290;28;20032;-75
2022/10/08 07:06:50;;;;;;;16.05;8.68;;;;;;;14.92;100.00;99132.91;5043609;28;20029;-73
2022/10/08 07:09:15;;;;;;;13.57;9.57;;;;;;;15.99;100.00;99147.06;5049083;28;20021;-74
2022/10/08 07:11:40;;;;;;;17.02;10.02;;;;;;;16.30;100.00;99126.06;5055943;28;20486;-73
2022/10/08 07:14:06;;;;;;;22.73;11.30;;;;;;;16.41;100.00;99152.56;5059115;28;20029;-73
2022/10/08 07:16:31;;;;;;;17.35;10.45;;;;;;;16.23;100.00;99140.88;5052207;28;20025;-74
2022/10/08 07:18:59;;;;;;;15.15;9.85;;;;;;;16.22;100.00;99145.53;5054677;28;20462;-76
2022/10/08 07:21:26;;;;;;;14.57;8.60;;;;;;;16.13;100.00;99158.63;5045969;28;20082;-76
2022/10/08 07:23:51;;;;;;;18.27;9.48;;;;;;;16.27;100.00;99161.19;5049937;28;20020;-76
2022/10/08 07:26:22;;;;;;;11.70;8.48;;;;;;;16.53;100.00;99168.16;5061432;28;20043;-76
2022/10/08 07:29:01;;;;;;;10.95;8.02;;;;;;;16.67;100.00;99157.88;5042564;28;20397;-77
2022/10/08 07:31:30;;;;;;;18.63;8.75;;;;;;;16.69;100.00;99170.25;5049078;28;20170;-76
2022/10/08 07:33:56;;;;;;;17.48;7.97;;;;;;;16.47;100.00;99164.47;5045335;28;20028;-76
2022/10/08 07:36:23;;;;;;;17.92;8.63;;;;;;;16.72;100.00;99180.69;5045694;28;20021;-76
2022/10/08 07:38:56;;;;;;;13.52;7.57;;;;;;;16.79;100.00;99172.41;5050375;28;20024;-76
2022/10/08 07:41:22;;;;;;;13.60;7.00;;;;;;;16.90;100.00;99157.09;5049812;28;20355;-76
2022/10/08 07:43:57;;;;;;;18.75;7.05;;;;;;;17.09;100.00;99175.91;5043573;28;20055;-76
2022/10/08 07:46:22;;;;;;;12.15;5.95;;;;;;;17.66;100.00;99161.59;5050283;28;20021;-76
2022/10/08 07:48:49;;;;;;;10.18;5.03;;;;;;;18.62;100.00;99167.34;5047937;28;20043;-76
2022/10/08 07:51:18;;;;;;;14.57;5.10;;;;;;;19.88;100.00;99171.50;5053775;28;20017;-75
2022/10/08 07:53:44;;;;;;;6.38;2.80;;;;;;;20.59;96.00;99176.16;5053237;28;20013;-75
2022/10/08 07:56:12;;;;;;;11.05;2.60;;;;;;;20.62;87.66;99164.69;5041707;28;20021;-75
2022/10/08 07:58:37;;;;;;;8.73;3.30;;;;;;;20.63;81.33;99160.00;5054436;28;20043;-75
2022/10/08 08:01:05;;;;;;;8.68;2.80;;;;;;;20.15;84.63;99181.75;5049051;28;20033;-75
2022/10/08 08:03:31;;;;;;;11.50;2.95;;;;;;;20.26;87.03;99189.00;5050406;28;20083;-75
2022/10/08 08:06:04;;;;;;;11.18;2.90;;;;;;;20.26;87.08;99188.19;5044710;28;20025;-74
2022/10/08 08:08:30;;;;;;;11.35;3.08;;;;;;;20.00;87.37;99176.06;5051114;28;20025;-75
2022/10/08 08:11:00;;;;;;;11.57;2.70;;;;;;;21.70;74.91;99182.03;5046097;28;20087;-76
2022/10/08 08:13:27;;;;;;;11.40;2.35;;;;;;;23.27;63.39;99178.03;5061470;28;20470;-75
2022/10/08 08:16:00;;;;;;;8.80;2.00;;;;;;;24.34;58.10;99178.81;5042967;28;20025;-76
2022/10/08 08:18:30;;;;;;;7.38;1.70;;;;;;;25.18;53.17;99184.34;5049995;28;20408;-72
2022/10/08 08:21:19;;;;;;;5.85;1.80;;;;;;;26.05;50.80;99184.31;5044112;28;20402;-75
2022/10/08 08:23:50;;;;;;;4.20;1.52;;;;;;;26.48;47.44;99189.03;5055586;28;20025;-73
2022/10/08 08:26:28;;;;;;;8.13;1.98;;;;;;;26.30;46.99;99182.34;5042882;28;20410;-71
2022/10/08 08:28:59;;;;;;;12.60;1.83;;;;;;;25.26;48.65;99194.84;5044686;28;20497;-76
2022/10/08 08:31:28;;;;;;;4.47;1.85;;;;;;;25.33;47.89;99198.06;5051510;28;20033;-75
2022/10/08 08:33:59;;;;;;;8.93;1.73;;;;;;;25.00;47.07;99186.72;5050439;28;20025;-72
2022/10/08 08:36:30;;;;;;;6.93;2.15;;;;;;;24.92;46.81;99182.63;5047062;28;20033;-71
2022/10/08 08:38:56;;;;;;;7.32;1.70;;;;;;;25.01;46.15;99184.75;5054182;28;20107;-75
2022/10/08 08:41:24;;;;;;;4.80;1.45;;;;;;;25.82;45.48;99188.72;5052451;28;20103;-75
2022/10/08 08:43:57;;;;;;;9.82;1.67;;;;;;;27.37;42.42;99182.69;5057482;28;20029;-73
2022/10/08 08:46:24;;;;;;;9.48;2.10;;;;;;;27.99;41.03;99188.75;5039915;28;20031;-75
2022/10/08 08:48:52;;;;;;;8.15;1.95;;;;;;;27.74;41.51;99195.59;5038720;28;20095;-74
2022/10/08 08:51:17;;;;;;;6.75;1.63;;;;;;;26.30;42.11;99199.78;5040407;28;20399;-73
2022/10/08 08:53:43;;;;;;;6.85;1.80;;;;;;;25.53;42.95;99203.44;5052299;28;20021;-73
2022/10/08 08:56:15;;;;;;;6.25;1.50;;;;;;;25.78;41.97;99198.72;5047968;28;20032;-73
2022/10/08 08:58:47;;;;;;;7.65;1.35;;;;;;;26.04;41.65;99201.25;5050180;28;20051;-74
2022/10/08 09:01:15;;;;;;;8.75;1.55;;;;;;;25.97;41.14;99207.16;5046821;28;20348;-73
2022/10/08 09:03:49;;;;;;;4.80;1.60;;;;;;;25.49;41.20;99199.59;5049336;28;20052;-73
2022/10/08 09:06:18;;;;;;;7.20;1.60;;;;;;;26.05;41.84;99209.28;5045425;28;20041;-74
2022/10/08 09:08:44;;;;;;;;;;;;;;;25.50;41.91;99206.78;5052734;28;20024;-73
2022/10/08 09:11:13;;;;;;;6.80;1.33;;;;;;;26.62;41.21;99203.84;5046871;28;19912;-73
2022/10/08 09:13:46;;;;;;;7.75;1.40;;;;;;;27.33;38.01;99199.16;5045241;28;20025;-73
2022/10/08 09:16:12;;;;;;;6.63;1.60;;;;;;;27.50;36.61;99204.94;5039848;28;20419;-74
2022/10/08 09:18:40;;;;;;;8.65;1.85;;;;;;;27.68;38.40;99200.44;5048152;28;20021;-74
2022/10/08 09:21:05;;;;;;;6.28;1.38;;;;;;;26.59;37.94;99205.28;5055243;28;20083;-74
2022/10/08 09:23:30;;;;;;;6.47;1.90;;;;;;;26.26;39.29;99209.84;5044494;28;20021;-74
2022/10/08 09:26:20;;;;;;;6.05;1.58;;;;;;;27.07;38.33;99218.16;5043202;28;20406;-74
2022/10/08 09:28:48;;;;;;;11.93;1.65;;;;;;;26.38;38.42;99210.25;5061706;28;20032;-74
2022/10/08 09:31:21;;;;;;;6.10;1.30;;;;;;;26.81;37.76;99212.19;5042396;28;20028;-74
2022/10/08 09:33:57;;;;;;;5.45;1.48;;;;;;;25.95;39.62;99214.94;5054290;28;20021;-74
2022/10/08 09:36:48;;;;;;;8.13;1.70;;;;;;;25.74;40.08;99225.41;5041221;28;20082;-74
2022/10/08 09:39:35;;;;;;;14.65;2.63;;;;;;;24.83;40.65;99225.84;5045800;28;20041;-74
2022/10/08 09:42:21;;;;;;;6.95;1.70;;;;;;;25.11;41.06;99231.75;5048034;28;20115;-74
2022/10/08 09:44:55;;;;;;;14.98;1.52;;;;;;;26.31;38.40;99206.19;5041528;28;20124;-74
2022/10/08 09:47:22;;;;;;;7.00;1.42;;;;;;;27.30;37.50;99236.69;5046214;28;20052;-74
2022/10/08 09:50:15;;;;;;;5.97;1.58;;;;;;;27.78;36.38;99229.19;5050775;28;20024;-75
2022/10/08 09:52:41;;;;;;;6.70;1.30;;;;;;;28.26;35.98;99226.03;5067215;28;20111;-74
2022/10/08 09:55:14;;;;;;;5.88;1.33;;;;;;;27.35;35.91;99223.84;5042941;28;20052;-74
2022/10/08 09:57:44;;;;;;;5.57;1.38;;;;;;;27.59;36.33;99232.88;5045233;28;20033;-74
2022/10/08 10:00:34;;;;;;;5.10;1.30;;;;;;;28.15;35.24;99223.47;5042513;28;20033;-74
2022/10/08 10:03:01;;;;;;;5.82;1.60;;;;;;;27.90;35.56;99221.19;5044637;28;20027;-74
2022/10/08 10:05:33;;;;;;;6.13;1.67;;;;;;;27.17;35.86;99226.38;5042712;28;20063;-74
2022/10/08 10:07:59;;;;;;;5.45;1.40;;;;;;;25.50;37.92;99234.50;5043665;28;20453;-74
2022/10/08 10:10:31;;;;;;;9.73;1.90;;;;;;;24.68;40.51;99229.56;5049241;28;20037;-74
2022/10/08 10:13:08;;;;;;;5.15;1.30;;;;;;;24.27;40.73;99232.50;5044697;28;20017;-73
2022/10/08 10:15:43;;;;;;;6.45;1.20;;;;;;;25.72;39.50;99242.31;5049628;28;20512;-74
2022/10/08 10:18:14;;;;;;;5.57;1.60;;;;;;;27.17;36.54;99240.25;5049615;28;20039;-75
2022/10/08 10:20:44;;;;;;;7.38;1.20;;;;;;;27.29;35.36;99237.00;5062451;28;20045;-76
2022/10/08 10:23:21;;;;;;;5.32;1.30;;;;;;;27.90;35.68;99235.94;5061801;28;20013;-76
2022/10/08 10:26:06;;;;;;;7.28;1.25;;;;;;;27.48;36.43;99245.28;5041747;28;20044;-74
2022/10/08 10:28:52;;;;;;;5.85;1.13;;;;;;;27.37;34.35;99243.81;5050867;28;20029;-74
2022/10/08 10:31:18;;;;;;;7.40;0.90;;;;;;;26.74;34.58;99236.69;5044087;28;20056;-74
2022/10/08 10:33:58;;;;;;;7.18;1.40;;;;;;;27.08;35.21;99236.47;5043028;28;20060;-74
2022/10/08 10:36:30;;;;;;;10.20;1.40;;;;;;;28.07;34.78;99229.75;5036111;28;20039;-74
2022/10/08 10:39:07;;;;;;;5.75;1.70;;;;;;;28.53;33.74;99226.06;5049621;28;20029;-74
2022/10/08 10:41:42;;;;;;;6.93;1.05;;;;;;;27.79;35.08;99233.59;5049734;28;20044;-74
2022/10/08 10:44:13;;;;;;;7.32;1.40;;;;;;;27.98;35.09;99231.59;5046594;28;20083;-74
2022/10/08 10:46:42;;;;;;;4.95;1.50;;;;;;;27.25;34.94;99239.56;5047364;28;20090;-74
2022/10/08 10:49:21;;;;;;;6.53;1.10;;;;;;;27.69;35.44;99235.47;5053454;28;20441;-74
2022/10/08 10:52:09;;;;;;;4.53;1.23;;;;;;;27.37;35.47;99232.69;5048020;28;20478;-74
2022/10/08 10:54:47;;;;;;;6.75;1.45;;;;;;;27.44;35.16;99241.47;5062062;28;20037;-74
2022/10/08 10:57:31;;;;;;;5.82;1.10;;;;;;;26.35;35.25;99251.63;5043620;28;20025;-74
2022/10/08 11:00:20;;;;;;;8.88;1.50;;;;;;;26.28;36.85;99240.06;5042726;28;20028;-73
2022/10/08 11:03:07;;;;;;;5.85;1.10;;;;;;;27.55;34.81;99240.16;5045772;28;20509;-73
2022/10/08 11:05:35;;;;;;;9.70;1.10;;;;;;;27.72;34.00;99236.81;5042202;28;20044;-73
2022/10/08 11:08:16;;;;;;;9.50;1.35;;;;;;;27.96;35.45;99245.00;5044395;28;20024;-74
2022/10/08 11:11:10;;;;;;;6.65;1.25;;;;;;;28.80;33.57;99239.06;5042341;28;20029;-73
2022/10/08 11:13:55;;;;;;;7.57;1.40;;;;;;;28.88;33.64;99231.13;5048741;28;20515;-73
2022/10/08 11:16:48;;;;;;;3.50;1.23;;;;;;;28.68;33.22;99224.88;5055201;28;20056;-74
2022/10/08 11:19:41;;;;;;;6.25;1.42;;;;;;;28.00;33.86;99232.09;5040541;28;20108;-74
2022/10/08 11:22:32;;;;;;;7.40;1.60;;;;;;;26.68;35.74;99238.72;5048774;28;20024;-73
2022/10/08 11:25:21;;;;;;;4.45;1.08;;;;;;;27.93;34.98;99243.66;5059409;28;20041;-74
2022/10/08 11:27:46;;;;;;;6.75;1.35;;;;;;;27.68;35.44;99239.34;5046664;28;20044;-73
2022/10/08 11:30:16;;;;;;;5.88;1.40;;;;;;;27.53;35.90;99237.66;5049288;28;20541;-73
2022/10/08 11:32:48;;;;;;;5.18;1.17;;;;;;;27.84;34.81;99225.22;5042061;28;20503;-73
2022/10/08 11:35:40;;;;;;;4.93;1.23;;;;;;;27.48;35.14;99229.44;5040110;28;20095;-74
2022/10/08 11:38:36;;;;;;;7.05;1.30;;;;;;;25.48;39.21;99238.66;5040285;28;20485;-74
2022/10/08 11:41:08;;;;;;;6.10;1.30;;;;;;;27.02;37.95;99221.84;5041441;28;20033;-73